Time;durP1;ratioP1;P1;durP2;ratioP2;P2;SDS_P1;SDS_P2;PMS_P1;PMS_P2;Temp;Humidity;BMP_temperature;BMP_pressure;BME280_temperature;BME280_humidity;BME280_pressure;Samples;Min_cycle;Max_cycle;Signal;HPM_P1;HPM_P2
2023/08/08 00:00:19;;;;;;;6.75;2.20;;;;;;;12.80;71.78;100534.59;7399037;19;20031;-67
2023/08/08 00:02:47;;;;;;;5.28;2.03;;;;;;;12.79;71.65;100540.75;7395529;19;20017;-67
2023/08/08 00:05:18;;;;;;;5.85;2.15;;;;;;;12.78;71.58;100530.28;7398820;19;20035;-67
2023/08/08 00:07:47;;;;;;;4.25;1.83;;;;;;;12.78;71.64;100532.94;7399234;19;20010;-67
2023/08/08 00:10:15;;;;;;;6.22;2.15;;;;;;;12.77;71.63;100529.41;7398735;19;20031;-67
2023/08/08 00:12:43;;;;;;;4.15;1.65;;;;;;;12.75;71.56;100523.38;7398111;19;20428;-67
2023/08/08 00:15:12;;;;;;;4.07;1.60;;;;;;;12.74;71.48;100524.28;7398536;19;20024;-67
2023/08/08 00:17:41;;;;;;;5.68;1.80;;;;;;;12.71;71.69;100514.72;7396531;19;20119;-67
2023/08/08 00:20:11;;;;;;;4.10;1.60;;;;;;;12.70;71.43;100525.25;7398447;19;20018;-68
2023/08/08 00:22:42;;;;;;;4.13;2.00;;;;;;;12.68;71.58;100521.84;7396071;19;20371;-68
2023/08/08 00:25:11;;;;;;;5.30;1.67;;;;;;;12.67;71.54;100520.97;7398607;19;20376;-68
2023/08/08 00:27:43;;;;;;;5.80;2.00;;;;;;;12.67;71.46;100526.22;7396066;19;20018;-67
2023/08/08 00:30:13;;;;;;;7.15;2.38;;;;;;;12.67;71.48;100517.47;7398592;19;20071;-68
2023/08/08 00:32:42;;;;;;;4.50;2.03;;;;;;;12.67;71.39;100530.66;7397436;19;20477;-68
2023/08/08 00:35:11;;;;;;;3.67;1.63;;;;;;;12.65;71.41;100527.19;7397883;19;20035;-67
2023/08/08 00:37:42;;;;;;;7.80;2.53;;;;;;;12.63;71.26;100529.03;7397420;19;20515;-67
2023/08/08 00:40:11;;;;;;;3.50;1.70;;;;;;;12.61;71.24;100523.84;7397330;19;20011;-67
2023/08/08 00:42:40;;;;;;;3.97;1.80;;;;;;;12.59;71.45;100524.78;7395660;19;20085;-67
2023/08/08 00:45:10;;;;;;;3.83;1.73;;;;;;;12.58;71.39;100525.69;7397512;19;20372;-67
2023/08/08 00:47:38;;;;;;;3.13;1.77;;;;;;;12.54;71.55;100530.19;7397053;19;20482;-67
2023/08/08 00:50:08;;;;;;;6.38;2.20;;;;;;;12.53;71.68;100531.97;7397371;19;20018;-66
2023/08/08 00:52:44;;;;;;;6.30;1.83;;;;;;;12.50;71.98;100526.81;7397291;19;20022;-67
2023/08/08 00:55:16;;;;;;;6.80;2.10;;;;;;;12.47;72.03;100534.81;7397376;19;20071;-67
2023/08/08 00:57:45;;;;;;;4.00;2.00;;;;;;;12.44;72.45;100524.38;7397578;19;20029;-67
2023/08/08 01:00:14;;;;;;;4.07;1.77;;;;;;;12.41;72.58;100527.13;7395298;19;20038;-67
2023/08/08 01:02:43;;;;;;;7.03;2.13;;;;;;;12.38;72.83;100508.78;7395568;19;20037;-67
2023/08/08 01:05:12;;;;;;;5.75;2.10;;;;;;;12.35;73.02;100515.00;7395150;19;20014;-67
2023/08/08 01:08:08;;;;;;;6.22;1.88;;;;;;;12.33;73.38;100519.50;7396788;19;20398;-67
2023/08/08 01:10:42;;;;;;;4.70;2.03;;;;;;;12.30;73.67;100521.34;7397018;19;20015;-67
2023/08/08 01:13:11;;;;;;;4.05;2.03;;;;;;;12.30;73.55;100521.34;7396597;19;20481;-67
2023/08/08 01:15:55;;;;;;;8.55;2.67;;;;;;;12.29;74.07;100524.88;7394078;19;20037;-67
2023/08/08 01:18:24;;;;;;;5.15;1.98;;;;;;;12.28;73.44;100523.16;7395198;19;20018;-67
2023/08/08 01:20:55;;;;;;;3.38;1.50;;;;;;;12.27;73.37;100529.31;7396304;19;20011;-67
2023/08/08 01:23:31;;;;;;;4.47;1.80;;;;;;;12.25;73.39;100523.28;7394146;19;20514;-67
2023/08/08 01:26:03;;;;;;;5.28;1.75;;;;;;;12.24;73.18;100526.81;7394933;19;20070;-67
2023/08/08 01:28:31;;;;;;;3.10;1.50;;;;;;;12.23;73.11;100525.94;7396147;19;20019;-67
2023/08/08 01:31:00;;;;;;;3.33;1.58;;;;;;;12.20;72.77;100524.25;7395875;19;20011;-67
2023/08/08 01:33:28;;;;;;;7.25;2.03;;;;;;;12.19;72.37;100519.91;7394900;19;20500;-67
2023/08/08 01:36:03;;;;;;;5.72;2.55;;;;;;;12.19;72.19;100511.16;7395877;19;20011;-67
2023/08/08 01:38:35;;;;;;;4.35;1.48;;;;;;;12.17;72.18;100519.09;7396169;19;20428;-68
2023/08/08 01:41:08;;;;;;;4.65;1.70;;;;;;;12.14;71.83;100508.66;7395424;19;20010;-69
2023/08/08 01:43:40;;;;;;;5.65;1.70;;;;;;;12.16;71.84;100512.13;7393494;19;20536;-73
2023/08/08 01:46:09;;;;;;;4.70;1.55;;;;;;;12.16;72.04;100520.00;7395832;19;20023;-66
2023/08/08 01:48:38;;;;;;;5.00;1.75;;;;;;;12.15;71.79;100510.41;7393803;19;20037;-66
2023/08/08 01:51:06;;;;;;;5.68;1.50;;;;;;;12.15;71.70;100517.44;7395398;19;20094;-66
2023/08/08 01:53:35;;;;;;;5.80;2.08;;;;;;;12.13;71.76;100511.34;7394223;19;20014;-67
2023/08/08 01:56:06;;;;;;;6.28;1.85;;;;;;;12.12;71.84;100507.88;7395253;19;20014;-67
2023/08/08 01:58:35;;;;;;;4.45;1.70;;;;;;;12.13;71.87;100514.88;7393071;19;20015;-67
2023/08/08 02:01:03;;;;;;;4.88;1.58;;;;;;;12.13;71.88;100496.47;7394715;19;20372;-66
2023/08/08 02:03:31;;;;;;;5.57;1.75;;;;;;;12.12;71.89;100501.75;7393358;19;20090;-66
2023/08/08 02:06:00;;;;;;;6.15;1.95;;;;;;;12.10;72.10;100503.56;7394981;19;20018;-66
2023/08/08 02:08:28;;;;;;;3.20;1.70;;;;;;;12.08;72.17;100486.97;7394525;19;20010;-66
2023/08/08 02:10:57;;;;;;;7.95;2.30;;;;;;;12.06;72.30;100500.19;7394866;19;20027;-66
2023/08/08 02:13:28;;;;;;;3.45;1.67;;;;;;;12.03;72.77;100485.38;7394126;19;20018;-66
2023/08/08 02:15:56;;;;;;;6.30;2.05;;;;;;;12.03;72.80;100489.75;7394553;19;20035;-67
2023/08/08 02:18:25;;;;;;;4.88;1.80;;;;;;;12.01;72.76;100495.06;7395057;19;20031;-67
2023/08/08 02:20:53;;;;;;;3.92;1.67;;;;;;;12.00;73.07;100487.22;7392354;19;20020;-66
2023/08/08 02:23:21;;;;;;;4.38;1.83;;;;;;;11.99;73.07;100491.63;7392850;19;20018;-66
2023/08/08 02:25:50;;;;;;;5.35;1.77;;;;;;;11.98;73.24;100495.19;7396097;19;20018;-67
2023/08/08 02:28:18;;;;;;;5.93;2.30;;;;;;;11.97;73.45;100488.19;7401807;19;20427;-65
2023/08/08 02:30:49;;;;;;;2.88;1.70;;;;;;;11.96;73.69;100490.88;7401788;19;20014;-67
2023/08/08 02:33:18;;;;;;;4.20;1.85;;;;;;;11.94;73.36;100487.38;7400784;19;20474;-66
2023/08/08 02:35:46;;;;;;;5.45;1.95;;;;;;;11.92;73.70;100481.31;7401597;19;20014;-66
2023/08/08 02:38:15;;;;;;;3.83;1.83;;;;;;;11.90;73.76;100490.13;7401498;19;20031;-67
2023/08/08 02:40:43;;;;;;;5.68;1.70;;;;;;;11.88;73.85;100485.81;7401212;19;20422;-67
2023/08/08 02:43:12;;;;;;;2.53;1.85;;;;;;;11.86;73.95;100491.09;7399461;19;20031;-67
2023/08/08 02:45:40;;;;;;;6.75;1.83;;;;;;;11.85;74.08;100484.16;7401071;19;20017;-67
2023/08/08 02:48:12;;;;;;;3.08;1.60;;;;;;;11.84;74.03;100485.06;7401390;19;20028;-67
2023/08/08 02:50:40;;;;;;;3.40;1.98;;;;;;;11.82;74.11;100476.34;7399073;19;20031;-67
2023/08/08 02:53:08;;;;;;;5.35;2.17;;;;;;;11.78;74.45;100480.00;7400599;19;20036;-67
2023/08/08 02:55:39;;;;;;;4.57;2.00;;;;;;;11.72;74.42;100483.66;7398424;19;20018;-66
2023/08/08 02:58:07;;;;;;;4.00;1.88;;;;;;;11.65;74.82;100481.25;7400647;19;20014;-66
2023/08/08 03:00:36;;;;;;;4.25;1.95;;;;;;;11.56;75.09;100477.13;7400969;19;20059;-66
2023/08/08 03:03:04;;;;;;;5.75;2.20;;;;;;;11.46;75.41;100489.72;7397939;19;20015;-66
2023/08/08 03:05:35;;;;;;;5.40;1.60;;;;;;;11.39;75.78;100485.53;7400590;19;20021;-66
2023/08/08 03:08:04;;;;;;;5.75;2.15;;;;;;;11.31;76.12;100484.88;7400333;19;20070;-66
2023/08/08 03:10:30;;;;;;;5.50;2.30;;;;;;;11.24;76.52;100482.44;7400307;19;20066;-66
2023/08/08 03:12:58;;;;;;;6.22;2.60;;;;;;;11.20;76.56;100482.59;7399958;19;20480;-67
2023/08/08 03:15:27;;;;;;;3.63;1.95;;;;;;;11.14;77.11;100490.63;7400422;19;20014;-66
2023/08/08 03:17:55;;;;;;;3.17;2.00;;;;;;;11.10;76.67;100489.84;7396925;19;20539;-66
2023/08/08 03:20:24;;;;;;;6.32;2.35;;;;;;;11.10;76.77;100489.84;7397434;19;20085;-66
2023/08/08 03:22:55;;;;;;;5.80;2.95;;;;;;;11.06;77.29;100491.69;7398790;19;20070;-66
2023/08/08 03:25:23;;;;;;;11.57;5.80;;;;;;;11.05;77.18;100491.75;7400641;19;20028;-66
2023/08/08 03:27:51;;;;;;;8.07;3.95;;;;;;;11.02;77.40;100486.56;7400106;19;20078;-66
2023/08/08 03:30:20;;;;;;;6.60;3.30;;;;;;;11.01;77.72;100474.38;7399573;19;20027;-66
2023/08/08 03:32:48;;;;;;;5.55;2.70;;;;;;;10.98;77.83;100485.81;7397040;19;20414;-66
2023/08/08 03:35:17;;;;;;;6.97;3.55;;;;;;;10.96;77.86;100482.38;7399029;19;20502;-66
2023/08/08 03:37:46;;;;;;;6.88;3.10;;;;;;;10.96;78.68;100486.75;7398518;19;20078;-67
2023/08/08 03:40:17;;;;;;;4.22;3.05;;;;;;;10.95;78.53;100500.78;7396834;19;20410;-67
2023/08/08 03:42:45;;;;;;;9.18;3.30;;;;;;;10.95;78.54;100492.91;7397878;19;20487;-67
2023/08/08 03:45:14;;;;;;;6.30;2.95;;;;;;;10.95;78.52;100492.91;7399410;19;20031;-67
2023/08/08 03:47:43;;;;;;;3.22;2.40;;;;;;;10.95;78.63;100493.75;7399365;19;20086;-67
2023/08/08 03:50:12;;;;;;;7.43;3.53;;;;;;;10.96;78.60;100495.50;7396969;19;20420;-67
2023/08/08 03:52:41;;;;;;;6.75;2.85;;;;;;;10.98;78.67;100500.69;7399126;19;20376;-67
2023/08/08 03:55:09;;;;;;;6.70;3.40;;;;;;;10.99;78.83;100489.28;7396793;19;20481;-67
2023/08/08 03:57:40;;;;;;;5.50;2.75;;;;;;;10.98;79.47;100488.44;7399100;19;20027;-67
2023/08/08 04:00:11;;;;;;;7.78;3.15;;;;;;;10.98;79.41;100488.44;7397213;19;20023;-66
2023/08/08 04:02:40;;;;;;;9.77;3.15;;;;;;;11.00;79.21;100491.00;7398774;19;20027;-66
2023/08/08 04:05:09;;;;;;;6.68;3.17;;;;;;;11.00;79.82;100491.88;7398525;19;20077;-67
2023/08/08 04:07:37;;;;;;;3.85;2.83;;;;;;;11.02;79.51;100497.06;7398613;19;20078;-69
2023/08/08 04:10:07;;;;;;;4.20;2.22;;;;;;;11.03;79.57;100485.66;7398499;19;20011;-67
2023/08/08 04:12:35;;;;;;;5.70;3.13;;;;;;;11.04;79.54;100488.25;7398782;19;20022;-66
2023/08/08 04:15:07;;;;;;;6.45;3.20;;;;;;;11.03;80.18;100480.41;7395996;19;20517;-67
2023/08/08 04:17:36;;;;;;;7.85;3.25;;;;;;;11.06;79.58;100483.81;7397030;19;20029;-66
2023/08/08 04:20:06;;;;;;;7.07;3.25;;;;;;;11.09;79.60;100482.88;7398126;19;20024;-66
2023/08/08 04:22:35;;;;;;;5.20;2.92;;;;;;;11.13;79.65;100486.28;7397343;19;20033;-66
2023/08/08 04:25:03;;;;;;;6.47;3.05;;;;;;;11.14;79.65;100480.13;7395601;19;20474;-66
2023/08/08 04:27:32;;;;;;;9.20;3.53;;;;;;;11.17;79.92;100480.91;7395458;19;20543;-66
2023/08/08 04:30:00;;;;;;;6.45;3.20;;;;;;;11.20;79.84;100480.81;7398022;19;20029;-66
2023/08/08 04:32:31;;;;;;;6.95;3.10;;;;;;;11.24;79.84;100490.31;7397717;19;20083;-65
2023/08/08 04:35:00;;;;;;;4.80;3.00;;;;;;;11.26;80.42;100492.91;7395834;19;20062;-66
2023/08/08 04:37:28;;;;;;;7.53;2.90;;;;;;;11.29;79.80;100484.94;7397779;19;20077;-66
2023/08/08 04:39:57;;;;;;;5.28;2.55;;;;;;;11.34;79.73;100490.06;7397118;19;20010;-65
2023/08/08 04:42:25;;;;;;;8.02;2.85;;;;;;;11.38;80.10;100483.81;7396321;19;20018;-66
2023/08/08 04:44:54;;;;;;;5.00;2.90;;;;;;;11.44;79.82;100488.00;7395140;19;20070;-66
2023/08/08 04:47:22;;;;;;;5.22;2.67;;;;;;;11.49;79.70;100496.66;7395684;19;20078;-66
2023/08/08 04:49:53;;;;;;;6.00;2.58;;;;;;;11.55;79.55;100491.19;7394877;19;20086;-66
2023/08/08 04:52:22;;;;;;;4.78;2.60;;;;;;;11.61;79.57;100490.16;7397525;19;20083;-66
2023/08/08 04:54:50;;;;;;;13.00;3.05;;;;;;;11.67;79.39;100482.94;7395298;19;20066;-65
2023/08/08 04:57:19;;;;;;;8.63;2.90;;;;;;;11.74;79.24;100481.84;7394887;19;20545;-67
2023/08/08 04:59:47;;;;;;;6.47;2.85;;;;;;;11.81;79.39;100492.19;7396756;19;20082;-66
2023/08/08 05:02:16;;;;;;;5.88;3.08;;;;;;;11.88;79.17;100478.78;7396680;19;20097;-66
2023/08/08 05:04:44;;;;;;;4.93;2.63;;;;;;;11.95;79.35;100487.34;7394588;19;20025;-66
2023/08/08 05:07:15;;;;;;;4.13;2.58;;;;;;;12.02;78.96;100490.69;7396050;19;20403;-66
2023/08/08 05:09:44;;;;;;;6.15;2.92;;;;;;;12.11;78.71;100489.53;7395739;19;20544;-66
2023/08/08 05:12:12;;;;;;;9.68;2.95;;;;;;;12.18;78.47;100481.38;7396246;19;20455;-66
2023/08/08 05:14:41;;;;;;;7.05;2.70;;;;;;;12.26;78.39;100486.41;7394518;19;20019;-66
2023/08/08 05:17:09;;;;;;;4.80;2.55;;;;;;;12.33;78.04;100477.41;7395507;19;20019;-65
2023/08/08 05:19:37;;;;;;;8.27;3.40;;;;;;;12.42;77.96;100476.19;7395659;19;20561;-66
2023/08/08 05:22:07;;;;;;;6.65;2.60;;;;;;;12.49;77.63;100475.09;7396021;19;20018;-66
2023/08/08 05:24:38;;;;;;;6.70;2.70;;;;;;;12.56;77.40;100483.63;7394077;19;20082;-66
2023/08/08 05:27:07;;;;;;;5.03;2.50;;;;;;;12.63;77.12;100484.28;7395712;19;20485;-67
2023/08/08 05:29:37;;;;;;;4.47;2.80;;;;;;;12.66;76.86;100482.41;7395415;19;20477;-67
2023/08/08 05:32:07;;;;;;;5.93;2.60;;;;;;;12.71;76.59;100466.44;7395690;19;20498;-67
2023/08/08 05:34:36;;;;;;;9.63;2.55;;;;;;;12.78;76.74;100473.22;7393991;19;20385;-67
2023/08/08 05:37:04;;;;;;;4.45;2.42;;;;;;;12.82;76.40;100468.72;7395670;19;20070;-67
2023/08/08 05:39:33;;;;;;;5.30;2.33;;;;;;;12.87;76.22;100467.63;7395136;19;20066;-66
2023/08/08 05:42:04;;;;;;;3.92;2.45;;;;;;;12.92;75.83;100471.88;7393088;19;20011;-66
2023/08/08 05:44:32;;;;;;;4.85;2.67;;;;;;;12.99;75.96;100483.91;7392946;19;20549;-66
2023/08/08 05:47:01;;;;;;;4.32;2.22;;;;;;;13.06;75.61;100480.13;7395358;19;20077;-66
2023/08/08 05:49:29;;;;;;;6.03;2.30;;;;;;;13.13;75.62;100484.28;7394595;19;20074;-66
2023/08/08 05:51:58;;;;;;;5.93;1.90;;;;;;;13.18;74.74;100490.22;7393883;19;20455;-66
2023/08/08 05:54:27;;;;;;;3.15;1.77;;;;;;;13.24;74.50;100470.69;7393558;19;20098;-66
2023/08/08 05:56:56;;;;;;;4.13;2.20;;;;;;;13.27;73.61;100477.63;7392387;19;20074;-66
2023/08/08 05:59:27;;;;;;;2.38;1.75;;;;;;;13.30;73.83;100472.25;7394740;19;20013;-66
2023/08/08 06:01:55;;;;;;;4.22;2.10;;;;;;;13.34;74.00;100477.34;7399538;19;20014;-66
2023/08/08 06:04:24;;;;;;;6.07;1.70;;;;;;;13.36;74.03;100472.03;7399772;19;20082;-66
2023/08/08 06:06:52;;;;;;;4.63;2.30;;;;;;;13.39;73.87;100479.81;7401977;19;20023;-66
2023/08/08 06:09:22;;;;;;;5.57;1.85;;;;;;;13.40;73.42;100478.91;7402062;19;20501;-66
2023/08/08 06:11:50;;;;;;;2.53;2.00;;;;;;;13.40;73.52;100463.09;7402319;19;20014;-66
2023/08/08 06:14:19;;;;;;;8.68;2.67;;;;;;;13.44;73.12;100469.13;7400420;19;20420;-65
2023/08/08 06:16:50;;;;;;;4.93;2.58;;;;;;;13.46;73.34;100452.34;7401490;19;20350;-66
2023/08/08 06:19:18;;;;;;;4.57;2.15;;;;;;;13.48;73.37;100468.97;7402403;19;20014;-66
2023/08/08 06:21:47;;;;;;;4.38;2.03;;;;;;;13.52;73.64;100467.03;7401658;19;20035;-66
2023/08/08 06:24:15;;;;;;;3.15;2.20;;;;;;;13.55;73.37;100476.59;7399865;19;20074;-66
2023/08/08 06:26:44;;;;;;;3.70;2.58;;;;;;;13.57;73.23;100485.31;7401499;19;20007;-66
2023/08/08 06:29:13;;;;;;;4.72;2.28;;;;;;;13.58;73.57;100472.06;7398948;19;20078;-66
2023/08/08 06:31:42;;;;;;;3.15;1.88;;;;;;;13.58;72.88;100465.97;7401274;19;20010;-65
2023/08/08 06:34:13;;;;;;;4.38;2.33;;;;;;;13.60;73.36;100479.94;7399658;19;20040;-66
2023/08/08 06:36:42;;;;;;;9.68;2.45;;;;;;;13.62;73.37;100467.56;7401141;19;20541;-65
2023/08/08 06:39:11;;;;;;;5.97;2.42;;;;;;;13.64;73.33;100474.47;7401034;19;20379;-66
2023/08/08 06:41:39;;;;;;;6.93;2.35;;;;;;;13.67;73.26;100469.09;7400677;19;20401;-66
2023/08/08 06:44:10;;;;;;;3.17;2.13;;;;;;;13.70;73.04;100465.50;7400204;19;20086;-66
2023/08/08 06:46:38;;;;;;;2.53;2.00;;;;;;;13.76;73.28;100467.88;7402341;19;20034;-66
2023/08/08 06:49:07;;;;;;;3.47;2.03;;;;;;;13.81;73.14;100473.84;7400285;19;20070;-66
2023/08/08 06:51:38;;;;;;;8.02;2.05;;;;;;;13.88;72.88;100471.81;7400866;19;20099;-66
2023/08/08 06:54:07;;;;;;;4.00;2.10;;;;;;;13.96;72.45;100460.94;7398764;19;20014;-66
2023/08/08 06:56:36;;;;;;;5.50;2.33;;;;;;;14.05;72.61;100471.09;7400518;19;20011;-66
2023/08/08 06:59:04;;;;;;;4.60;1.83;;;;;;;14.16;72.46;100468.06;7400671;19;20013;-66
2023/08/08 07:01:39;;;;;;;3.00;1.98;;;;;;;14.25;71.44;100466.81;7400446;19;20074;-66
2023/08/08 07:04:07;;;;;;;7.15;2.03;;;;;;;14.31;71.16;100461.28;7397009;19;20537;-66
2023/08/08 07:06:38;;;;;;;5.88;1.80;;;;;;;14.38;71.47;100467.16;7400364;19;20066;-66
2023/08/08 07:09:10;;;;;;;3.92;1.85;;;;;;;14.42;70.95;100466.97;7400254;19;20413;-66
2023/08/08 07:11:38;;;;;;;4.10;1.90;;;;;;;14.45;70.87;100458.91;7400236;19;20010;-66
2023/08/08 07:14:07;;;;;;;3.75;1.90;;;;;;;14.47;70.57;100475.53;7396451;19;20031;-66
2023/08/08 07:16:42;;;;;;;3.95;2.45;;;;;;;14.48;70.45;100466.72;7396016;19;20073;-65
2023/08/08 07:19:11;;;;;;;3.13;2.03;;;;;;;14.53;70.62;100465.66;7399616;19;20150;-66
2023/08/08 07:21:42;;;;;;;8.85;2.30;;;;;;;14.55;70.38;100461.16;7399727;19;20021;-66
2023/08/08 07:24:11;;;;;;;2.28;1.70;;;;;;;14.59;70.06;100470.66;7397865;19;20476;-66
2023/08/08 07:26:40;;;;;;;3.42;1.70;;;;;;;14.63;70.00;100475.75;7399298;19;20017;-66
2023/08/08 07:29:08;;;;;;;3.22;1.80;;;;;;;14.66;70.31;100475.66;7399917;19;20074;-66
2023/08/08 07:31:37;;;;;;;3.85;1.98;;;;;;;14.68;69.48;100486.13;7399604;19;20010;-66
2023/08/08 07:34:05;;;;;;;3.75;1.83;;;;;;;14.69;69.51;100482.56;7397473;19;20433;-66
2023/08/08 07:36:33;;;;;;;4.93;1.90;;;;;;;14.71;69.46;100470.19;7397183;19;20082;-66
2023/08/08 07:39:05;;;;;;;3.75;1.85;;;;;;;14.76;69.15;100470.84;7399454;19;20078;-66
2023/08/08 07:41:34;;;;;;;3.40;2.38;;;;;;;14.81;69.22;100474.13;7397492;19;20010;-66
2023/08/08 07:44:03;;;;;;;3.08;1.70;;;;;;;14.86;68.88;100481.00;7398266;19;20022;-65
2023/08/08 07:46:31;;;;;;;2.55;1.77;;;;;;;14.89;68.68;100472.94;7396956;19;20041;-66
2023/08/08 07:49:03;;;;;;;3.00;2.03;;;;;;;14.93;68.73;100480.66;7399806;19;20025;-66
2023/08/08 07:51:32;;;;;;;3.63;1.52;;;;;;;14.97;67.65;100478.72;7397187;19;20017;-66
2023/08/08 07:54:01;;;;;;;2.40;1.42;;;;;;;15.06;67.56;100473.03;7398085;19;20018;-65
2023/08/08 07:56:32;;;;;;;2.20;1.60;;;;;;;15.19;66.46;100459.25;7398669;19;20023;-66
2023/08/08 07:59:01;;;;;;;5.32;1.92;;;;;;;15.31;67.65;100479.84;7399337;19;20014;-67
2023/08/08 08:01:29;;;;;;;4.90;1.67;;;;;;;15.45;66.44;100466.84;7398291;19;20473;-66
2023/08/08 08:03:58;;;;;;;4.30;1.92;;;;;;;15.54;65.88;100494.63;7396106;19;20078;-66
2023/08/08 08:06:27;;;;;;;3.08;1.55;;;;;;;15.63;66.12;100469.56;7398261;19;20014;-66
2023/08/08 08:08:55;;;;;;;3.55;1.52;;;;;;;15.71;65.62;100472.72;7396452;19;20018;-66
2023/08/08 08:11:24;;;;;;;2.13;1.40;;;;;;;15.80;65.08;100471.41;7398221;19;20010;-66
2023/08/08 08:13:55;;;;;;;1.55;1.15;;;;;;;15.84;64.50;100458.94;7397461;19;20032;-67
2023/08/08 08:16:23;;;;;;;2.72;1.42;;;;;;;15.89;64.53;100462.22;7398628;19;20062;-66
2023/08/08 08:18:52;;;;;;;2.53;1.42;;;;;;;15.92;64.31;100452.34;7395437;19;20070;-66
2023/08/08 08:21:20;;;;;;;5.22;2.03;;;;;;;15.95;63.83;100457.47;7397547;19;20086;-66
2023/08/08 08:23:49;;;;;;;3.85;1.60;;;;;;;16.02;63.82;100443.94;7396187;19;20015;-66
2023/08/08 08:26:17;;;;;;;3.22;1.67;;;;;;;16.08;64.36;100451.59;7397616;19;20073;-66
2023/08/08 08:28:46;;;;;;;4.60;1.80;;;;;;;16.12;63.89;100456.66;7395379;19;20011;-66
2023/08/08 08:31:17;;;;;;;3.53;1.83;;;;;;;16.18;63.23;100458.13;7397481;19;20082;-66
2023/08/08 08:33:46;;;;;;;4.53;1.45;;;;;;;16.21;63.59;100463.25;7395046;19;20505;-66
2023/08/08 08:36:15;;;;;;;4.10;1.77;;;;;;;16.21;63.51;100459.75;7397132;19;20011;-66
2023/08/08 08:38:43;;;;;;;3.30;1.55;;;;;;;16.26;63.72;100468.34;7397111;19;20425;-66
2023/08/08 08:41:17;;;;;;;3.40;1.50;;;;;;;16.32;62.91;100464.53;7397481;19;20089;-66
2023/08/08 08:43:46;;;;;;;2.58;1.50;;;;;;;16.37;63.23;100462.50;7396017;19;20378;-66
2023/08/08 08:46:21;;;;;;;2.53;1.10;;;;;;;16.45;63.06;100468.25;7396823;19;20007;-66
2023/08/08 08:48:51;;;;;;;3.40;1.70;;;;;;;16.51;62.33;100451.22;7397163;19;20472;-66
2023/08/08 08:51:20;;;;;;;4.18;1.70;;;;;;;16.58;63.31;100447.28;7396394;19;20027;-66
2023/08/08 08:53:49;;;;;;;3.35;1.23;;;;;;;16.62;61.18;100456.81;7396126;19;20031;-66
2023/08/08 08:56:18;;;;;;;4.60;1.65;;;;;;;16.69;62.27;100449.41;7393936;19;20481;-66
2023/08/08 08:58:46;;;;;;;3.22;1.40;;;;;;;16.75;62.03;100447.28;7393739;19;20505;-66
2023/08/08 09:01:19;;;;;;;4.70;1.30;;;;;;;16.83;61.34;100446.03;7395800;19;20074;-66
2023/08/08 09:03:48;;;;;;;3.90;1.65;;;;;;;16.86;61.32;100457.31;7394031;19;20017;-67
2023/08/08 09:06:19;;;;;;;4.32;1.60;;;;;;;16.90;59.78;100439.47;7395690;19;20074;-67
2023/08/08 09:08:47;;;;;;;6.80;1.55;;;;;;;16.97;61.08;100453.28;7394012;19;20007;-67
2023/08/08 09:11:16;;;;;;;3.20;1.55;;;;;;;17.06;60.35;100435.09;7394067;19;20500;-67
2023/08/08 09:13:44;;;;;;;4.03;2.70;;;;;;;17.16;60.37;100440.78;7395079;19;20396;-67
2023/08/08 09:16:14;;;;;;;3.75;1.67;;;;;;;17.23;59.84;100447.44;7393886;19;20031;-67
2023/08/08 09:18:45;;;;;;;4.85;1.77;;;;;;;17.30;58.63;100436.50;7394203;19;20387;-66
2023/08/08 09:21:15;;;;;;;2.97;1.30;;;;;;;17.35;59.09;100431.78;7393710;19;20498;-66
2023/08/08 09:23:44;;;;;;;3.65;1.30;;;;;;;17.39;58.61;100422.75;7394991;19;20054;-66
2023/08/08 09:26:12;;;;;;;2.28;1.42;;;;;;;17.46;57.75;100437.34;7393726;19;20370;-67
2023/08/08 09:28:41;;;;;;;3.60;1.58;;;;;;;17.50;57.12;100438.03;7395728;19;20035;-67
2023/08/08 09:31:10;;;;;;;3.30;1.70;;;;;;;17.53;58.73;100429.94;7395237;19;20429;-67
2023/08/08 09:33:41;;;;;;;4.25;1.67;;;;;;;17.52;57.56;100426.41;7394726;19;20027;-66
2023/08/08 09:36:16;;;;;;;3.83;1.52;;;;;;;17.52;57.76;100417.59;7392127;19;20014;-66
2023/08/08 09:38:45;;;;;;;4.45;1.50;;;;;;;17.53;58.42;100422.81;7395606;19;20027;-67
2023/08/08 09:41:14;;;;;;;2.50;1.50;;;;;;;17.55;58.51;100417.41;7393455;19;20011;-68
2023/08/08 09:43:42;;;;;;;2.20;1.60;;;;;;;17.55;57.98;100407.69;7394395;19;20027;-68
2023/08/08 09:46:11;;;;;;;3.45;1.60;;;;;;;17.59;58.10;100411.00;7393342;19;20015;-67
2023/08/08 09:48:42;;;;;;;3.03;1.40;;;;;;;17.61;58.04;100392.38;7395166;19;20027;-68
2023/08/08 09:51:13;;;;;;;1.73;1.42;;;;;;;17.67;57.86;100406.13;7395038;19;20070;-70
2023/08/08 09:53:44;;;;;;;3.60;1.55;;;;;;;17.70;58.55;100389.19;7394634;19;20449;-70
2023/08/08 09:56:13;;;;;;;4.00;1.48;;;;;;;17.76;58.69;100394.13;7395647;19;20022;-70
2023/08/08 09:58:41;;;;;;;3.38;1.30;;;;;;;17.81;58.96;100399.19;7396334;19;20074;-70
2023/08/08 10:01:12;;;;;;;3.33;1.45;;;;;;;17.86;58.63;100399.78;7394631;19;20477;-66
2023/08/08 10:03:42;;;;;;;4.13;1.50;;;;;;;17.89;57.84;100391.63;7392948;19;20021;-66
2023/08/08 10:06:14;;;;;;;5.10;1.52;;;;;;;17.91;58.56;100387.09;7393603;19;20011;-67
2023/08/08 10:08:43;;;;;;;2.65;1.40;;;;;;;17.96;56.06;100382.41;7394467;19;20086;-68
2023/08/08 10:11:14;;;;;;;2.15;1.35;;;;;;;18.01;56.62;100398.06;7394581;19;20087;-67
2023/08/08 10:13:50;;;;;;;1.55;1.20;;;;;;;18.06;53.29;100378.25;7393831;19;20041;-67
2023/08/08 10:16:20;;;;;;;3.33;1.30;;;;;;;18.19;56.01;100374.88;7394226;19;20007;-67
2023/08/08 10:18:57;;;;;;;3.78;1.45;;;;;;;18.30;55.41;100384.84;7391332;19;20021;-66
2023/08/08 10:21:29;;;;;;;4.45;1.58;;;;;;;18.35;53.78;100386.28;7394614;19;20070;-66
2023/08/08 10:24:05;;;;;;;3.13;1.00;;;;;;;18.37;51.35;100397.69;7393246;19;20018;-67
2023/08/08 10:26:33;;;;;;;3.55;1.23;;;;;;;18.40;51.49;100394.81;7392615;19;20070;-67
2023/08/08 10:29:03;;;;;;;2.20;1.10;;;;;;;18.48;51.03;100397.03;7394064;19;20433;-67
2023/08/08 10:31:37;;;;;;;3.70;1.15;;;;;;;18.56;50.61;100391.25;7392200;19;20011;-67
2023/08/08 10:34:06;;;;;;;;;;;;;;;18.58;50.13;100392.00;7392493;19;20018;-67
2023/08/08 10:36:55;;;;;;;2.85;1.13;;;;;;;18.54;49.93;100385.19;7393990;19;19974;-67
2023/08/08 10:39:24;;;;;;;3.28;1.20;;;;;;;18.55;50.81;100371.81;7393493;19;20549;-67
2023/08/08 10:41:53;;;;;;;6.57;1.35;;;;;;;18.59;51.04;100366.28;7393243;19;20010;-67
2023/08/08 10:44:25;;;;;;;2.38;1.00;;;;;;;18.65;51.19;100369.44;7391834;19;20070;-68
2023/08/08 10:46:55;;;;;;;4.95;1.40;;;;;;;18.75;51.16;100367.03;7395446;19;20018;-68
2023/08/08 10:49:24;;;;;;;4.30;2.28;;;;;;;18.83;50.27;100363.91;7401036;19;20017;-68
2023/08/08 10:51:55;;;;;;;1.90;1.25;;;;;;;18.82;50.80;100379.00;7398680;19;20087;-69
2023/08/08 10:54:28;;;;;;;2.92;1.17;;;;;;;18.83;49.97;100374.53;7399126;19;20015;-65
2023/08/08 10:56:58;;;;;;;3.28;1.15;;;;;;;18.86;49.95;100369.03;7401084;19;20010;-66
2023/08/08 10:59:30;;;;;;;2.88;1.23;;;;;;;18.96;49.08;100370.19;7400697;19;20031;-66
2023/08/08 11:01:59;;;;;;;4.30;1.45;;;;;;;19.08;49.65;100367.72;7400307;19;20513;-67
2023/08/08 11:04:29;;;;;;;2.70;1.25;;;;;;;19.18;49.42;100356.41;7398101;19;20568;-67
2023/08/08 11:07:01;;;;;;;2.17;1.30;;;;;;;19.26;47.92;100345.28;7400340;19;20021;-67
2023/08/08 11:09:30;;;;;;;4.43;1.55;;;;;;;19.31;48.18;100348.50;7400054;19;20513;-67
2023/08/08 11:11:58;;;;;;;3.38;1.10;;;;;;;19.32;48.93;100350.22;7400066;19;20022;-67
2023/08/08 11:14:26;;;;;;;2.33;1.10;;;;;;;19.39;49.32;100345.34;7397570;19;20097;-67
2023/08/08 11:16:55;;;;;;;2.80;1.45;;;;;;;19.47;49.64;100351.00;7399654;19;20082;-66
2023/08/08 11:19:25;;;;;;;7.43;1.60;;;;;;;19.49;49.66;100334.94;7397933;19;20127;-66
2023/08/08 11:21:53;;;;;;;2.15;1.25;;;;;;;19.49;50.19;100334.94;7399730;19;20010;-67
2023/08/08 11:24:24;;;;;;;2.00;1.42;;;;;;;19.44;50.55;100342.38;7397507;19;20422;-67
2023/08/08 11:27:00;;;;;;;2.30;1.50;;;;;;;19.37;50.63;100334.81;7396113;19;20031;-67
2023/08/08 11:29:30;;;;;;;1.98;1.40;;;;;;;19.20;57.61;100389.06;7398583;19;20389;-67
2023/08/08 11:31:59;;;;;;;2.20;1.45;;;;;;;18.76;56.77;100378.53;7396292;19;20007;-67
2023/08/08 11:34:27;;;;;;;2.90;1.75;;;;;;;18.19;59.29;100385.50;7394967;19;20081;-67